createdAt,value
2023-05-06T00:02:01.765Z,97243.38
2023-05-06T00:04:28.521Z,97245.59
2023-05-06T00:06:56.920Z,97236.53
2023-05-06T00:09:26.893Z,97243.41
2023-05-06T00:11:53.615Z,97243.25
2023-05-06T00:14:20.260Z,97244.50
2023-05-06T00:16:46.985Z,97244.06
2023-05-06T00:19:13.982Z,97238.94
2023-05-06T00:21:40.704Z,97245.50
2023-05-06T00:24:07.426Z,97241.75
2023-05-06T00:26:34.084Z,97223.81
2023-05-06T00:29:00.728Z,97242.75
2023-05-06T00:31:27.323Z,97236.50
2023-05-06T00:33:53.993Z,97238.72
2023-05-06T00:36:20.689Z,97233.38
2023-05-06T00:38:47.334Z,97229.94
2023-05-06T00:41:14.080Z,97232.47
2023-05-06T00:43:41.091Z,97231.69
2023-05-06T00:46:10.257Z,97234.03
2023-05-06T00:48:37.497Z,97226.19
2023-05-06T00:51:04.695Z,97234.97
2023-05-06T00:53:31.412Z,97227.47
2023-05-06T00:55:58.356Z,97220.88
2023-05-06T00:58:25.007Z,97223.22
2023-05-06T01:00:52.448Z,97217.63
2023-05-06T01:03:19.489Z,97226.53
2023-05-06T01:06:01.692Z,97215.09
2023-05-06T01:08:37.634Z,97210.72
2023-05-06T01:11:15.944Z,97214.31
2023-05-06T01:13:50.530Z,97193.06
2023-05-06T01:16:20.610Z,97206.34
2023-05-06T01:18:49.319Z,97212.44
2023-05-06T01:21:17.806Z,97209.63
2023-05-06T01:23:56.138Z,97195.56
2023-05-06T01:26:23.030Z,97209.78
2023-05-06T01:28:49.944Z,97209.28
2023-05-06T01:31:25.134Z,97212.91
2023-05-06T01:34:09.030Z,97221.81
2023-05-06T01:36:38.338Z,97225.22
2023-05-06T01:39:18.342Z,97226.81
2023-05-06T01:41:49.265Z,97229.31
2023-05-06T01:44:17.325Z,97228.34
2023-05-06T01:46:45.911Z,97215.56
2023-05-06T01:49:14.950Z,97226.50
2023-05-06T01:51:46.812Z,97222.13
2023-05-06T01:54:13.523Z,97227.72
2023-05-06T01:56:40.386Z,97215.56
2023-05-06T01:59:06.988Z,97217.56
2023-05-06T02:01:33.666Z,97214.59
2023-05-06T02:04:00.475Z,97216.94
2023-05-06T02:06:27.288Z,97224.88
2023-05-06T02:08:53.907Z,97218.63
2023-05-06T02:11:20.653Z,97214.88
2023-05-06T02:13:47.334Z,97205.50
2023-05-06T02:16:13.977Z,97208.91
2023-05-06T02:18:41.550Z,97212.34
2023-05-06T02:21:09.904Z,97212.53
2023-05-06T02:23:36.647Z,97217.16
2023-05-06T02:26:04.446Z,97203.56
2023-05-06T02:28:31.040Z,97215.00
2023-05-06T02:30:58.452Z,97215.91
2023-05-06T02:33:24.961Z,97215.72
2023-05-06T02:35:51.781Z,97210.78
2023-05-06T02:38:19.674Z,97218.31
2023-05-06T02:40:46.245Z,97231.59
2023-05-06T02:43:13.010Z,97229.25
2023-05-06T02:45:40.037Z,97236.88
2023-05-06T02:48:06.795Z,97239.69
2023-05-06T02:50:35.281Z,97223.22
2023-05-06T02:53:01.993Z,97239.16
2023-05-06T02:55:28.572Z,97248.63
2023-05-06T02:57:55.374Z,97236.94
2023-05-06T03:00:22.212Z,97241.19
2023-05-06T03:02:48.927Z,97228.84
2023-05-06T03:05:15.593Z,97242.03
2023-05-06T03:07:42.320Z,97248.88
2023-05-06T03:10:09.511Z,97244.53
2023-05-06T03:12:36.105Z,97246.22
2023-05-06T03:15:02.775Z,97251.69
2023-05-06T03:17:29.426Z,97248.44
2023-05-06T03:19:56.237Z,97249.81
2023-05-06T03:22:23.010Z,97251.28
2023-05-06T03:24:49.607Z,97257.81
2023-05-06T03:27:16.316Z,97256.00
2023-05-06T03:29:42.997Z,97257.13
2023-05-06T03:32:09.684Z,97255.19
2023-05-06T03:34:36.412Z,97256.75
2023-05-06T03:37:03.346Z,97255.44
2023-05-06T03:39:29.992Z,97257.00
2023-05-06T03:41:56.685Z,97249.69
2023-05-06T03:44:23.313Z,97240.16
2023-05-06T03:46:49.972Z,97254.03
2023-05-06T03:49:16.728Z,97251.13
2023-05-06T03:51:43.506Z,97264.19
2023-05-06T03:54:10.180Z,97256.38
2023-05-06T03:56:36.821Z,97256.03
2023-05-06T03:59:03.784Z,97243.88
2023-05-06T04:01:30.433Z,97260.91
2023-05-06T04:03:57.100Z,97258.88
2023-05-06T04:06:23.884Z,97255.28
2023-05-06T04:08:50.511Z,97261.78
2023-05-06T04:11:17.063Z,97265.38
2023-05-06T04:13:43.689Z,97268.72
2023-05-06T04:16:10.768Z,97273.28
2023-05-06T04:18:37.641Z,97273.41
2023-05-06T04:21:04.455Z,97269.13
2023-05-06T04:23:31.350Z,97273.34
2023-05-06T04:25:58.120Z,97279.53
2023-05-06T04:28:24.930Z,97286.09
2023-05-06T04:30:51.685Z,97286.31
2023-05-06T04:33:18.310Z,97297.75
2023-05-06T04:35:54.880Z,97284.97
2023-05-06T04:38:22.816Z,97300.44
2023-05-06T04:40:50.204Z,97299.53
2023-05-06T04:43:17.262Z,97308.06
2023-05-06T04:45:49.653Z,97287.66
2023-05-06T04:48:18.706Z,97302.28
2023-05-06T04:50:45.894Z,97299.78
2023-05-06T04:53:13.226Z,97273.63
2023-05-06T04:55:39.819Z,97294.38
2023-05-06T04:58:06.551Z,97299.66
2023-05-06T05:00:33.567Z,97299.53
2023-05-06T05:03:01.780Z,97299.31
2023-05-06T05:05:29.068Z,97296.91
2023-05-06T05:07:56.321Z,97304.59
2023-05-06T05:10:23.129Z,97299.72
2023-05-06T05:12:49.855Z,97305.50
2023-05-06T05:15:16.546Z,97295.81
2023-05-06T05:17:45.001Z,97297.97
2023-05-06T05:20:11.877Z,97306.81
2023-05-06T05:22:38.556Z,97314.50
2023-05-06T05:25:07.585Z,97305.50
2023-05-06T05:27:34.973Z,97299.59
2023-05-06T05:30:01.620Z,97299.75
2023-05-06T05:32:28.341Z,97295.53
2023-05-06T05:34:55.028Z,97301.78
2023-05-06T05:37:21.602Z,97301.09
2023-05-06T05:39:48.288Z,97292.75
2023-05-06T05:42:14.922Z,97300.66
2023-05-06T05:44:41.472Z,97288.75
2023-05-06T05:47:08.114Z,97305.91
2023-05-06T05:49:34.755Z,97297.06
2023-05-06T05:52:01.314Z,97277.00
2023-05-06T05:54:28.030Z,97280.66
2023-05-06T05:56:54.612Z,97276.19
2023-05-06T05:59:21.278Z,97258.50
2023-05-06T06:01:47.981Z,97246.59
2023-05-06T06:04:14.573Z,97256.53
2023-05-06T06:06:41.358Z,97244.28
2023-05-06T06:09:08.933Z,97252.16
2023-05-06T06:11:35.554Z,97249.06
2023-05-06T06:14:02.355Z,97248.31
2023-05-06T06:16:29.149Z,97252.00
2023-05-06T06:18:56.001Z,97258.00
2023-05-06T06:21:22.631Z,97246.84
2023-05-06T06:23:49.366Z,97244.78
2023-05-06T06:26:15.941Z,97245.28
2023-05-06T06:28:44.575Z,97244.75
2023-05-06T06:31:11.869Z,97236.09
2023-05-06T06:33:38.440Z,97227.69
2023-05-06T06:36:05.735Z,97228.44
2023-05-06T06:38:32.314Z,97223.03
2023-05-06T06:40:58.915Z,97236.28
2023-05-06T06:43:25.632Z,97225.66
2023-05-06T06:45:52.413Z,97223.72
2023-05-06T06:48:19.326Z,97223.41
2023-05-06T06:50:46.133Z,97232.22
2023-05-06T06:53:12.842Z,97231.88
2023-05-06T06:55:42.487Z,97249.38
2023-05-06T06:58:09.130Z,97242.44
2023-05-06T07:00:35.880Z,97246.63
2023-05-06T07:03:02.656Z,97244.16
2023-05-06T07:05:29.459Z,97254.50
2023-05-06T07:07:56.193Z,97238.53
2023-05-06T07:10:23.017Z,97237.91
2023-05-06T07:12:49.688Z,97250.78
2023-05-06T07:15:16.394Z,97242.69
2023-05-06T07:17:43.037Z,97245.69
2023-05-06T07:20:10.317Z,97237.78
2023-05-06T07:22:37.112Z,97239.81
2023-05-06T07:25:03.904Z,97235.09
2023-05-06T07:27:30.898Z,97241.34
2023-05-06T07:29:57.717Z,97239.94
2023-05-06T07:32:24.306Z,97229.16
2023-05-06T07:34:50.868Z,97235.34
2023-05-06T07:37:17.562Z,97235.66
2023-05-06T07:39:44.228Z,97232.44
2023-05-06T07:42:13.137Z,97227.59
2023-05-06T07:44:40.177Z,97224.44
2023-05-06T07:47:07.301Z,97227.97
2023-05-06T07:49:35.276Z,97231.38
2023-05-06T07:52:03.583Z,97229.66
2023-05-06T07:54:31.805Z,97211.16
2023-05-06T07:56:58.579Z,97226.25
2023-05-06T07:59:25.370Z,97218.66
2023-05-06T08:01:52.233Z,97222.09
2023-05-06T08:04:18.886Z,97234.63
2023-05-06T08:06:45.713Z,97220.09
2023-05-06T08:09:14.854Z,97220.34
2023-05-06T08:11:50.033Z,97216.91
2023-05-06T08:14:16.642Z,97218.06
2023-05-06T08:16:43.425Z,97216.09
2023-05-06T08:19:10.212Z,97209.66
2023-05-06T08:21:36.795Z,97216.16
2023-05-06T08:24:03.729Z,97210.28
2023-05-06T08:26:30.414Z,97213.50
2023-05-06T08:28:57.870Z,97210.25
2023-05-06T08:31:24.534Z,97219.75
2023-05-06T08:33:53.916Z,97216.94
2023-05-06T08:36:22.024Z,97209.38
2023-05-06T08:38:50.915Z,97223.81
2023-05-06T08:41:19.782Z,97208.38
2023-05-06T08:43:48.415Z,97200.09
2023-05-06T08:46:15.287Z,97199.31
2023-05-06T08:48:42.764Z,97202.00
2023-05-06T08:51:09.663Z,97198.28
2023-05-06T08:53:36.601Z,97213.00
2023-05-06T08:56:06.923Z,97200.28
2023-05-06T08:58:35.226Z,97214.91
2023-05-06T09:01:03.336Z,97201.28
2023-05-06T09:03:30.438Z,97190.34
2023-05-06T09:06:00.177Z,97192.91
2023-05-06T09:08:27.198Z,97198.22
2023-05-06T09:10:53.777Z,97195.75
2023-05-06T09:13:20.544Z,97190.84
2023-05-06T09:15:48.834Z,97192.44
2023-05-06T09:18:18.127Z,97178.50
2023-05-06T09:20:46.982Z,97190.50
2023-05-06T09:23:16.205Z,97175.38
2023-05-06T09:25:47.389Z,97174.22
2023-05-06T09:28:14.742Z,97172.03
2023-05-06T09:30:43.268Z,97152.94
2023-05-06T09:33:10.760Z,97174.59
2023-05-06T09:35:39.453Z,97140.59
2023-05-06T09:38:07.579Z,97166.13
2023-05-06T09:40:38.870Z,97158.41
2023-05-06T09:43:06.172Z,97164.84
2023-05-06T09:45:33.366Z,97143.94
2023-05-06T09:48:00.620Z,97150.72
2023-05-06T09:50:27.435Z,97140.91
2023-05-06T09:52:55.374Z,97137.84
2023-05-06T09:55:26.754Z,97137.53
2023-05-06T09:57:54.824Z,97138.47
2023-05-06T10:00:28.102Z,97137.00
2023-05-06T10:02:55.313Z,97123.22
2023-05-06T10:05:22.961Z,97141.94
2023-05-06T10:07:52.243Z,97145.69
2023-05-06T10:10:19.052Z,97136.41
2023-05-06T10:12:46.335Z,97129.81
2023-05-06T10:15:13.296Z,97131.50
2023-05-06T10:17:45.296Z,97123.63
2023-05-06T10:20:14.826Z,97122.72
2023-05-06T10:22:59.869Z,97119.16
2023-05-06T10:25:45.835Z,97109.25
2023-05-06T10:28:16.170Z,97119.63
2023-05-06T10:33:16.553Z,97117.41
2023-05-06T10:35:55.747Z,97110.00
2023-05-06T10:38:31.357Z,97118.69
2023-05-06T10:40:59.485Z,97104.47
2023-05-06T10:43:29.102Z,97117.63
2023-05-06T10:46:18.381Z,97115.88
2023-05-06T10:49:08.588Z,97110.84
2023-05-06T10:51:35.880Z,97115.53
2023-05-06T10:54:07.313Z,97115.25
2023-05-06T10:56:38.356Z,97100.81
2023-05-06T10:59:12.627Z,97106.06
2023-05-06T11:01:41.234Z,97108.75
2023-05-06T11:04:12.611Z,97103.91
2023-05-06T11:06:48.394Z,97112.63
2023-05-06T11:09:27.749Z,97111.41
2023-05-06T11:12:04.417Z,97099.50
2023-05-06T11:14:37.834Z,97095.69
2023-05-06T11:17:07.073Z,97096.13
2023-05-06T11:19:36.467Z,97103.41
2023-05-06T11:22:07.504Z,97104.16
2023-05-06T11:24:42.288Z,97110.69
2023-05-06T11:27:10.555Z,97104.06
2023-05-06T11:29:37.702Z,97109.59
2023-05-06T11:32:05.736Z,97105.72
2023-05-06T11:34:33.040Z,97101.38
2023-05-06T11:37:02.716Z,97095.16
2023-05-06T11:39:36.509Z,97109.44
2023-05-06T11:42:07.378Z,97115.81
2023-05-06T11:44:36.175Z,97110.97
2023-05-06T11:47:08.354Z,97105.16
2023-05-06T11:49:37.536Z,97112.66
2023-05-06T11:52:04.391Z,97092.56
2023-05-06T11:54:34.853Z,97102.03
2023-05-06T11:57:02.120Z,97101.59
2023-05-06T11:59:33.767Z,97101.84
2023-05-06T12:02:03.118Z,97100.09
2023-05-06T12:04:41.356Z,97101.97
2023-05-06T12:07:10.316Z,97101.63
2023-05-06T12:09:38.514Z,97092.69
2023-05-06T12:12:06.989Z,97092.38
2023-05-06T12:14:35.967Z,97095.03
2023-05-06T12:17:03.632Z,97083.81
2023-05-06T12:19:30.937Z,97085.16
2023-05-06T12:22:18.160Z,97074.91
2023-05-06T12:24:46.203Z,97082.31
2023-05-06T12:27:13.181Z,97076.75
2023-05-06T12:29:39.905Z,97087.78
2023-05-06T12:32:10.838Z,97085.59
2023-05-06T12:34:41.592Z,97081.72
2023-05-06T12:37:08.795Z,97082.69
2023-05-06T12:39:38.937Z,97083.25
2023-05-06T12:42:06.506Z,97089.13
2023-05-06T12:44:40.163Z,97089.91
2023-05-06T12:47:19.690Z,97085.59
2023-05-06T12:49:46.228Z,97088.56
2023-05-06T12:52:12.869Z,97081.50
2023-05-06T12:54:39.508Z,97075.66
2023-05-06T12:57:06.184Z,97070.13
2023-05-06T12:59:32.936Z,97068.03
2023-05-06T13:01:59.610Z,97062.88
2023-05-06T13:04:26.495Z,97074.78
2023-05-06T13:06:53.185Z,97072.94
2023-05-06T13:09:19.829Z,97078.88
2023-05-06T13:11:46.515Z,97074.78
2023-05-06T13:14:13.572Z,97070.34
2023-05-06T13:16:42.114Z,97066.94
2023-05-06T13:19:21.163Z,97080.38
2023-05-06T13:21:57.962Z,97074.19
2023-05-06T13:24:24.680Z,97069.22
2023-05-06T13:26:51.344Z,97077.53
2023-05-06T13:29:18.180Z,97071.78
2023-05-06T13:31:44.731Z,97078.41
2023-05-06T13:34:11.366Z,97078.63
2023-05-06T13:36:38.983Z,97081.06
2023-05-06T13:39:05.543Z,97078.72
2023-05-06T13:41:32.807Z,97075.88
2023-05-06T13:43:59.491Z,97078.00
2023-05-06T13:46:27.337Z,97073.41
2023-05-06T13:48:54.094Z,97079.38
2023-05-06T13:51:20.778Z,97080.47
2023-05-06T13:53:47.410Z,97079.50
2023-05-06T13:56:14.047Z,97075.31
2023-05-06T13:58:40.807Z,97070.78
2023-05-06T14:01:07.452Z,97077.94
2023-05-06T14:03:34.194Z,97071.47
2023-05-06T14:06:01.536Z,97081.81
2023-05-06T14:08:28.276Z,97078.16
2023-05-06T14:10:54.896Z,97069.41
2023-05-06T14:13:21.588Z,97068.44
2023-05-06T14:15:48.400Z,97062.16
2023-05-06T14:18:15.090Z,97064.59
2023-05-06T14:20:41.727Z,97070.94
2023-05-06T14:23:08.631Z,97060.06
2023-05-06T14:25:35.322Z,97056.44
2023-05-06T14:28:01.985Z,97062.06
2023-05-06T14:30:28.732Z,97067.03
2023-05-06T14:32:55.511Z,97069.59
2023-05-06T14:35:22.409Z,97054.25
2023-05-06T14:37:49.240Z,97059.09
2023-05-06T14:40:16.329Z,97073.53
2023-05-06T14:42:42.923Z,97070.47
2023-05-06T14:45:10.119Z,97080.28
2023-05-06T14:47:37.082Z,97076.94
2023-05-06T14:50:04.389Z,97066.09
2023-05-06T14:52:31.094Z,97077.16
2023-05-06T14:54:57.758Z,97077.81
2023-05-06T14:57:24.388Z,97073.41
2023-05-06T14:59:52.059Z,97073.13
2023-05-06T15:02:18.890Z,97082.28
2023-05-06T15:04:46.133Z,97072.22
2023-05-06T15:07:12.641Z,97083.22
2023-05-06T15:09:40.289Z,97087.09
2023-05-06T15:12:07.216Z,97082.00
2023-05-06T15:14:33.870Z,97073.81
2023-05-06T15:17:00.804Z,97076.00
2023-05-06T15:19:27.497Z,97084.50
2023-05-06T15:21:54.497Z,97073.06
2023-05-06T15:24:21.066Z,97082.94
2023-05-06T15:26:47.698Z,97071.03
2023-05-06T15:29:14.351Z,97077.22
2023-05-06T15:31:44.022Z,97072.38
2023-05-06T15:34:11.842Z,97071.38
2023-05-06T15:36:41.324Z,97073.22
2023-05-06T15:39:08.339Z,97070.72
2023-05-06T15:41:36.429Z,97076.53
2023-05-06T15:44:06.169Z,97078.84
2023-05-06T15:46:33.632Z,97075.03
2023-05-06T15:51:30.848Z,97079.34
2023-05-06T15:53:57.942Z,97076.25
2023-05-06T15:56:26.907Z,97082.81
2023-05-06T15:58:53.930Z,97087.34
2023-05-06T16:01:25.390Z,97077.72
2023-05-06T16:04:02.264Z,97080.09
2023-05-06T16:06:28.958Z,97079.28
2023-05-06T16:08:55.645Z,97075.22
2023-05-06T16:11:23.585Z,97076.56
2023-05-06T16:13:50.202Z,97074.50
2023-05-06T16:16:16.887Z,97074.91
2023-05-06T16:18:43.513Z,97071.88
2023-05-06T16:21:10.148Z,97081.00
2023-05-06T16:23:36.930Z,97074.81
2023-05-06T16:26:03.721Z,97074.88
2023-05-06T16:28:30.316Z,97078.56
2023-05-06T16:30:56.991Z,97071.50
2023-05-06T16:33:23.680Z,97075.16
2023-05-06T16:35:50.349Z,97075.16
2023-05-06T16:38:16.936Z,97073.03
2023-05-06T16:40:48.408Z,97077.19
2023-05-06T16:43:15.412Z,97075.16
2023-05-06T16:45:45.283Z,97078.63
2023-05-06T16:48:15.927Z,97078.34
2023-05-06T16:50:42.680Z,97076.63
2023-05-06T16:53:09.449Z,97081.31
2023-05-06T16:55:36.584Z,97074.88
2023-05-06T16:58:04.134Z,97083.75
2023-05-06T17:00:31.942Z,97087.41
2023-05-06T17:02:58.701Z,97091.59
2023-05-06T17:05:25.877Z,97087.97
2023-05-06T17:07:52.618Z,97090.84
2023-05-06T17:10:19.300Z,97091.97
2023-05-06T17:12:46.012Z,97102.59
2023-05-06T17:15:12.694Z,97103.22
2023-05-06T17:17:40.022Z,97103.22
2023-05-06T17:20:07.607Z,97102.72
2023-05-06T17:22:34.235Z,97103.78
2023-05-06T17:25:00.860Z,97103.31
2023-05-06T17:27:27.593Z,97102.56
2023-05-06T17:29:54.388Z,97102.81
2023-05-06T17:32:21.095Z,97102.31
2023-05-06T17:34:47.676Z,97107.53
2023-05-06T17:37:14.318Z,97110.38
2023-05-06T17:39:40.957Z,97117.13
2023-05-06T17:42:08.421Z,97115.03
2023-05-06T17:44:36.085Z,97125.69
2023-05-06T17:47:02.691Z,97131.38
2023-05-06T17:49:29.745Z,97118.94
2023-05-06T17:51:57.318Z,97130.06
2023-05-06T17:54:25.343Z,97120.28
2023-05-06T17:56:53.045Z,97133.19
2023-05-06T17:59:20.207Z,97142.53
2023-05-06T18:01:47.466Z,97143.81
2023-05-06T18:04:14.377Z,97146.69
2023-05-06T18:06:41.921Z,97150.06
2023-05-06T18:09:10.427Z,97152.94
2023-05-06T18:11:38.102Z,97152.16
2023-05-06T18:14:05.561Z,97160.69
2023-05-06T18:16:32.373Z,97165.84
2023-05-06T18:19:00.977Z,97166.63
2023-05-06T18:21:27.909Z,97165.84
2023-05-06T18:24:01.950Z,97157.28
2023-05-06T18:26:44.802Z,97172.56
2023-05-06T18:29:12.380Z,97186.53
2023-05-06T18:31:39.421Z,97191.22
2023-05-06T18:34:06.141Z,97194.06
2023-05-06T18:36:33.673Z,97185.75
2023-05-06T18:39:01.296Z,97208.75
2023-05-06T18:41:28.033Z,97203.56
2023-05-06T18:43:54.685Z,97218.28
2023-05-06T18:46:21.456Z,97216.97
2023-05-06T18:48:48.309Z,97221.31
2023-05-06T18:51:17.342Z,97212.22
2023-05-06T18:53:44.983Z,97214.00
2023-05-06T18:56:14.160Z,97219.16
2023-05-06T18:58:41.015Z,97218.06
2023-05-06T19:01:11.104Z,97233.28
2023-05-06T19:03:38.387Z,97234.56
2023-05-06T19:06:10.567Z,97237.47
2023-05-06T19:08:37.517Z,97238.78
2023-05-06T19:11:04.381Z,97239.25
2023-05-06T19:13:31.321Z,97243.09
2023-05-06T19:15:58.042Z,97243.88
2023-05-06T19:18:24.676Z,97244.31
2023-05-06T19:20:52.022Z,97248.13
2023-05-06T19:23:20.170Z,97256.56
2023-05-06T19:25:46.786Z,97261.13
2023-05-06T19:28:13.539Z,97268.06
2023-05-06T19:30:40.270Z,97259.50
2023-05-06T19:33:07.042Z,97265.63
2023-05-06T19:35:33.753Z,97273.75
2023-05-06T19:38:00.468Z,97269.44
2023-05-06T19:40:27.120Z,97278.63
2023-05-06T19:42:54.913Z,97273.44
2023-05-06T19:45:21.587Z,97287.75
2023-05-06T19:47:48.241Z,97286.09
2023-05-06T19:50:14.868Z,97285.25
2023-05-06T19:52:41.876Z,97282.28
2023-05-06T19:55:09.621Z,97298.16
2023-05-06T19:57:37.438Z,97301.19
2023-05-06T20:00:09.884Z,97303.19
2023-05-06T20:02:38.019Z,97305.13
2023-05-06T20:05:06.213Z,97309.44
2023-05-06T20:07:33.621Z,97303.09
2023-05-06T20:10:00.269Z,97316.28
2023-05-06T20:12:27.472Z,97312.09
2023-05-06T20:14:54.831Z,97323.94
2023-05-06T20:17:21.688Z,97319.25
2023-05-06T20:19:49.441Z,97324.03
2023-05-06T20:22:16.354Z,97307.16
2023-05-06T20:24:43.805Z,97322.75
2023-05-06T20:27:10.452Z,97324.03
2023-05-06T20:29:37.085Z,97319.53
2023-05-06T20:32:03.935Z,97324.13
2023-05-06T20:34:30.763Z,97336.06
2023-05-06T20:36:57.364Z,97342.53
2023-05-06T20:39:24.038Z,97342.72
2023-05-06T20:41:50.748Z,97338.03
2023-05-06T20:44:17.480Z,97346.44
2023-05-06T20:46:44.237Z,97339.41
2023-05-06T20:49:10.957Z,97343.09
2023-05-06T20:51:37.696Z,97343.09
2023-05-06T20:54:04.430Z,97342.91
2023-05-06T20:56:31.293Z,97338.19
2023-05-06T20:58:57.866Z,97336.25
2023-05-06T21:01:25.697Z,97332.72
2023-05-06T21:03:52.618Z,97338.25
2023-05-06T21:06:19.728Z,97340.09
2023-05-06T21:08:46.758Z,97342.63
2023-05-06T21:11:14.161Z,97342.47
2023-05-06T21:13:40.958Z,97348.56
2023-05-06T21:16:07.677Z,97343.66
2023-05-06T21:18:34.632Z,97346.41
2023-05-06T21:21:01.292Z,97349.31
2023-05-06T21:23:27.900Z,97356.75
2023-05-06T21:25:54.644Z,97357.06
2023-05-06T21:28:21.268Z,97364.56
2023-05-06T21:30:48.103Z,97365.16
2023-05-06T21:33:14.846Z,97372.56
2023-05-06T21:35:41.512Z,97371.38
2023-05-06T21:38:08.146Z,97373.06
2023-05-06T21:40:34.776Z,97370.22
2023-05-06T21:43:03.258Z,97376.97
2023-05-06T21:45:29.940Z,97372.88
2023-05-06T21:47:56.770Z,97368.09
2023-05-06T21:50:23.475Z,97371.31
2023-05-06T21:52:50.147Z,97373.75
2023-05-06T21:55:16.799Z,97373.66
2023-05-06T21:57:44.606Z,97378.38
2023-05-06T22:00:12.567Z,97376.78
2023-05-06T22:02:40.442Z,97377.88
2023-05-06T22:05:08.455Z,97376.09
2023-05-06T22:07:36.010Z,97364.59
2023-05-06T22:10:03.229Z,97381.19
2023-05-06T22:12:30.953Z,97381.47
2023-05-06T22:14:57.632Z,97381.19
2023-05-06T22:17:24.345Z,97376.22
2023-05-06T22:19:51.898Z,97373.59
2023-05-06T22:22:18.984Z,97367.34
2023-05-06T22:24:45.917Z,97370.66
2023-05-06T22:27:12.606Z,97368.03
2023-05-06T22:29:39.313Z,97370.28
2023-05-06T22:32:06.391Z,97377.13
2023-05-06T22:34:33.113Z,97376.91
2023-05-06T22:37:00.907Z,97378.00
2023-05-06T22:39:27.907Z,97376.53
2023-05-06T22:41:54.561Z,97378.19
2023-05-06T22:44:21.439Z,97371.25
2023-05-06T22:46:47.997Z,97373.19
2023-05-06T22:49:16.055Z,97367.53
2023-05-06T22:51:42.814Z,97374.16
2023-05-06T22:54:09.527Z,97370.72
2023-05-06T22:56:36.187Z,97370.06
2023-05-06T22:59:02.978Z,97369.53
2023-05-06T23:01:33.311Z,97363.19
2023-05-06T23:04:00.132Z,97367.47
2023-05-06T23:06:31.127Z,97373.16
2023-05-06T23:08:57.989Z,97365.06
2023-05-06T23:11:24.745Z,97364.94
2023-05-06T23:13:51.470Z,97368.44
2023-05-06T23:16:18.289Z,97361.88
2023-05-06T23:18:46.246Z,97357.50
2023-05-06T23:21:12.934Z,97362.13
2023-05-06T23:23:39.636Z,97359.91
2023-05-06T23:26:06.326Z,97359.53
2023-05-06T23:28:32.985Z,97354.13
2023-05-06T23:31:00.374Z,97357.63
2023-05-06T23:33:26.961Z,97352.31
2023-05-06T23:35:53.605Z,97347.50
2023-05-06T23:38:20.293Z,97348.63
2023-05-06T23:40:46.918Z,97343.72
2023-05-06T23:43:13.486Z,97345.59
2023-05-06T23:45:40.090Z,97346.41
2023-05-06T23:48:06.977Z,97356.09
2023-05-06T23:50:33.868Z,97353.56
2023-05-06T23:53:00.639Z,97343.72
2023-05-06T23:55:28.116Z,97357.53
2023-05-06T23:57:55.544Z,97349.41
